Time;durP1;ratioP1;P1;durP2;ratioP2;P2;SDS_P1;SDS_P2;PMS_P1;PMS_P2;Temp;Humidity;BMP_temperature;BMP_pressure;BME280_temperature;BME280_humidity;BME280_pressure;Samples;Min_cycle;Max_cycle;Signal;HPM_P1;HPM_P2
2022/08/16 00:00:40;;;;;;;3.20;2.90;;;;;;;;;;5029703;28;20182;-73
2022/08/16 00:03:08;;;;;;;4.27;3.10;;;;;;;;;;5030233;28;20187;-73
2022/08/16 00:05:34;;;;;;;4.03;2.93;;;;;;;;;;5027873;28;20214;-73
2022/08/16 00:08:00;;;;;;;4.10;2.80;;;;;;;;;;5030299;28;20175;-73
2022/08/16 00:10:28;;;;;;;3.33;2.90;;;;;;;;;;5030233;28;20682;-73
2022/08/16 00:12:54;;;;;;;2.67;2.47;;;;;;;;;;5030071;28;20733;-73
2022/08/16 00:15:25;;;;;;;2.90;2.63;;;;;;;;;;5028309;28;20552;-73
2022/08/16 00:17:52;;;;;;;3.77;3.10;;;;;;;;;;5030374;28;20183;-73
2022/08/16 00:20:18;;;;;;;2.90;2.60;;;;;;;;;;5012661;28;20218;-73
2022/08/16 00:22:44;;;;;;;3.33;2.70;;;;;;;;;;5029884;28;20202;-73
2022/08/16 00:25:12;;;;;;;3.20;3.00;;;;;;;;;;5029688;28;20214;-73
2022/08/16 00:27:38;;;;;;;3.10;2.80;;;;;;;;;;5028967;28;20186;-74
2022/08/16 00:30:06;;;;;;;3.23;2.93;;;;;;;;;;5026722;28;20187;-73
2022/08/16 00:32:32;;;;;;;3.20;2.90;;;;;;;;;;5009642;28;20691;-73
2022/08/16 00:34:58;;;;;;;3.40;3.10;;;;;;;;;;5028492;28;20699;-73
2022/08/16 00:37:25;;;;;;;3.30;3.00;;;;;;;;;;5030009;28;20659;-73
2022/08/16 00:39:53;;;;;;;5.43;3.30;;;;;;;;;;4998090;28;20198;-73
2022/08/16 00:42:19;;;;;;;3.47;3.00;;;;;;;;;;5015122;28;20199;-73
2022/08/16 00:44:52;;;;;;;4.27;2.90;;;;;;;;;;5015591;28;21072;-73
2022/08/16 00:47:18;;;;;;;3.40;3.10;;;;;;;;;;5026559;28;20171;-73
2022/08/16 00:49:45;;;;;;;4.37;2.87;;;;;;;;;;5033014;28;20237;-73
2022/08/16 00:52:11;;;;;;;3.43;3.00;;;;;;;;;;5014894;28;20231;-74
2022/08/16 00:54:37;;;;;;;3.33;3.07;;;;;;;;;;5015571;28;20214;-73
2022/08/16 00:57:04;;;;;;;3.20;2.90;;;;;;;;;;5015959;28;20182;-73
2022/08/16 00:59:32;;;;;;;3.70;3.00;;;;;;;;;;5024811;28;20652;-73
2022/08/16 01:01:59;;;;;;;3.77;3.43;;;;;;;;;;5032746;28;20205;-73
2022/08/16 01:04:27;;;;;;;3.50;3.20;;;;;;;;;;5032463;28;20210;-73
2022/08/16 01:06:54;;;;;;;4.03;2.93;;;;;;;;;;5033098;28;20183;-73
2022/08/16 01:09:21;;;;;;;3.23;2.93;;;;;;;;;;5025934;28;20702;-73
2022/08/16 01:11:47;;;;;;;3.60;3.30;;;;;;;;;;5023872;28;20205;-73
2022/08/16 01:14:25;;;;;;;4.90;3.30;;;;;;;;;;5032015;28;20193;-73
2022/08/16 01:16:51;;;;;;;3.80;3.27;;;;;;;;;;5021472;28;20186;-73
2022/08/16 01:19:26;;;;;;;4.53;3.50;;;;;;;;;;5027956;28;20240;-73
2022/08/16 01:21:58;;;;;;;4.50;3.00;;;;;;;;;;5014559;28;20198;-73
2022/08/16 01:24:33;;;;;;;3.17;2.87;;;;;;;;;;5032042;28;20182;-73
2022/08/16 01:27:05;;;;;;;4.37;3.33;;;;;;;;;;5019811;28;20182;-73
2022/08/16 01:29:39;;;;;;;3.70;3.30;;;;;;;;;;5015201;28;20328;-73
2022/08/16 01:32:05;;;;;;;4.00;3.10;;;;;;;;;;4998747;28;20561;-73
2022/08/16 01:34:31;;;;;;;3.67;3.10;;;;;;;;;;5014505;28;20182;-73
2022/08/16 01:36:59;;;;;;;3.80;3.47;;;;;;;;;;5010622;28;20258;-73
2022/08/16 01:39:26;;;;;;;3.63;3.20;;;;;;;;;;5018166;28;20179;-73
2022/08/16 01:41:52;;;;;;;4.33;3.30;;;;;;;;;;5012664;28;20206;-73
2022/08/16 01:44:18;;;;;;;3.93;3.30;;;;;;;;;;5030107;28;20635;-73
2022/08/16 01:46:46;;;;;;;3.47;2.83;;;;;;;;;;5030490;28;20183;-73
2022/08/16 01:49:22;;;;;;;3.87;3.50;;;;;;;;;;5014654;28;20257;-73
2022/08/16 01:51:56;;;;;;;3.60;3.30;;;;;;;;;;4993714;28;20684;-73
2022/08/16 01:54:30;;;;;;;3.50;3.20;;;;;;;;;;5005963;28;20182;-74
2022/08/16 01:56:57;;;;;;;3.93;3.47;;;;;;;;;;5006926;28;20569;-73
2022/08/16 01:59:23;;;;;;;4.10;3.43;;;;;;;;;;5030800;28;20189;-73
2022/08/16 02:01:50;;;;;;;5.17;3.50;;;;;;;;;;5012863;28;20812;-73
2022/08/16 02:04:18;;;;;;;3.83;3.43;;;;;;;;;;4995347;28;20834;-73
2022/08/16 02:06:44;;;;;;;3.90;3.50;;;;;;;;;;4997298;28;20179;-73
2022/08/16 02:09:11;;;;;;;3.87;3.50;;;;;;;;;;5013696;28;20186;-73
2022/08/16 02:11:39;;;;;;;4.00;3.70;;;;;;;;;;5013757;28;20207;-73
2022/08/16 02:14:05;;;;;;;3.60;3.30;;;;;;;;;;5013866;28;20264;-73
2022/08/16 02:16:35;;;;;;;3.77;3.47;;;;;;;;;;5030930;28;20654;-74
2022/08/16 02:19:01;;;;;;;4.70;3.60;;;;;;;;;;5013736;28;20199;-73
2022/08/16 02:21:29;;;;;;;4.07;3.57;;;;;;;;;;5005461;28;20622;-73
2022/08/16 02:23:55;;;;;;;4.13;3.57;;;;;;;;;;5030915;28;20178;-73
2022/08/16 02:26:21;;;;;;;4.37;3.97;;;;;;;;;;5007618;28;20217;-73
2022/08/16 02:28:48;;;;;;;4.03;3.63;;;;;;;;;;5007606;28;20541;-73
2022/08/16 02:31:14;;;;;;;4.00;3.60;;;;;;;;;;4998877;28;20310;-73
2022/08/16 02:33:42;;;;;;;4.00;3.70;;;;;;;;;;5011214;28;20236;-73
2022/08/16 02:36:11;;;;;;;4.27;3.87;;;;;;;;;;5023705;28;20187;-73
2022/08/16 02:38:39;;;;;;;4.17;3.73;;;;;;;;;;5023815;28;20179;-73
2022/08/16 02:41:06;;;;;;;4.40;3.70;;;;;;;;;;5028197;28;20727;-73
2022/08/16 02:43:33;;;;;;;5.17;4.03;;;;;;;;;;5012867;28;20190;-73
2022/08/16 02:46:02;;;;;;;4.33;3.93;;;;;;;;;;5007042;28;20218;-73
2022/08/16 02:48:29;;;;;;;4.30;3.90;;;;;;;;;;5007523;28;20189;-73
2022/08/16 02:50:57;;;;;;;5.17;4.23;;;;;;;;;;5012284;28;20183;-73
2022/08/16 02:53:23;;;;;;;4.53;4.13;;;;;;;;;;5013143;28;20186;-73
2022/08/16 02:55:49;;;;;;;4.20;3.90;;;;;;;;;;5012068;28;20240;-73
2022/08/16 02:58:15;;;;;;;4.80;4.40;;;;;;;;;;5031132;28;20202;-73
2022/08/16 03:00:41;;;;;;;4.40;4.00;;;;;;;;;;5012715;28;20182;-73
2022/08/16 03:03:08;;;;;;;5.00;4.50;;;;;;;;;;5013558;28;20308;-73
2022/08/16 03:05:34;;;;;;;4.77;4.27;;;;;;;;;;5012540;28;20221;-73
2022/08/16 03:08:01;;;;;;;6.20;4.17;;;;;;;;;;5013117;28;20190;-73
2022/08/16 03:10:32;;;;;;;5.07;4.23;;;;;;;;;;4996141;28;20213;-73
2022/08/16 03:12:58;;;;;;;4.33;4.00;;;;;;;;;;5028842;28;20225;-73
2022/08/16 03:15:28;;;;;;;6.53;4.47;;;;;;;;;;4995629;28;20433;-73
2022/08/16 03:17:55;;;;;;;4.90;4.27;;;;;;;;;;5012826;28;20531;-73
2022/08/16 03:20:24;;;;;;;4.80;4.40;;;;;;;;;;4997081;28;20186;-73
2022/08/16 03:22:50;;;;;;;4.70;4.30;;;;;;;;;;5012765;28;20202;-74
2022/08/16 03:25:16;;;;;;;5.70;4.40;;;;;;;;;;5009469;28;20225;-73
2022/08/16 03:27:57;;;;;;;4.77;4.37;;;;;;;;;;4995353;28;20245;-73
2022/08/16 03:30:26;;;;;;;5.33;4.67;;;;;;;;;;5029081;28;20230;-73
2022/08/16 03:32:56;;;;;;;5.53;4.63;;;;;;;;;;4996173;28;20579;-73
2022/08/16 03:35:30;;;;;;;4.63;4.23;;;;;;;;;;4995579;28;20221;-73
2022/08/16 03:37:59;;;;;;;5.00;4.47;;;;;;;;;;5012878;28;20183;-73
2022/08/16 03:40:28;;;;;;;4.90;4.40;;;;;;;;;;5028494;28;20244;-73
2022/08/16 03:42:54;;;;;;;5.13;4.60;;;;;;;;;;5029609;28;20202;-73
2022/08/16 03:45:25;;;;;;;5.17;4.77;;;;;;;;;;5030444;28;20206;-73
2022/08/16 03:47:52;;;;;;;4.87;4.30;;;;;;;;;;5029853;28;20540;-73
2022/08/16 03:50:19;;;;;;;5.47;4.23;;;;;;;;;;5012602;28;20209;-73
2022/08/16 03:52:45;;;;;;;4.87;4.30;;;;;;;;;;5012308;28;20711;-73
2022/08/16 03:55:13;;;;;;;4.77;4.37;;;;;;;;;;4993304;28;20187;-73
2022/08/16 03:57:39;;;;;;;7.00;4.70;;;;;;;;;;5004907;28;20178;-73
2022/08/16 04:00:13;;;;;;;5.30;4.90;;;;;;;;;;5017036;28;20187;-73
2022/08/16 04:02:41;;;;;;;5.17;4.67;;;;;;;;;;5012463;28;20222;-73
2022/08/16 04:05:13;;;;;;;5.20;4.70;;;;;;;;;;4979380;28;20683;-74
2022/08/16 04:07:40;;;;;;;5.83;5.20;;;;;;;;;;5018804;28;20183;-73
2022/08/16 04:10:07;;;;;;;5.20;4.67;;;;;;;;;;5027634;28;20178;-73
2022/08/16 04:12:33;;;;;;;5.53;4.97;;;;;;;;;;5026442;28;20272;-73
2022/08/16 04:15:01;;;;;;;5.03;4.63;;;;;;;;;;5013832;28;20261;-73
2022/08/16 04:17:28;;;;;;;5.63;5.00;;;;;;;;;;5009347;28;20183;-73
2022/08/16 04:19:56;;;;;;;4.73;4.30;;;;;;;;;;5015858;28;20281;-73
2022/08/16 04:22:23;;;;;;;5.40;4.90;;;;;;;;;;5033279;28;20552;-73
2022/08/16 04:24:55;;;;;;;6.50;5.20;;;;;;;;;;5016320;28;20210;-73
2022/08/16 04:27:22;;;;;;;5.87;5.37;;;;;;;;;;5032837;28;20595;-73
2022/08/16 04:29:48;;;;;;;6.43;5.30;;;;;;;;;;4996253;28;20202;-73
2022/08/16 04:32:15;;;;;;;5.20;4.70;;;;;;;;;;5012869;28;20230;-73
2022/08/16 04:34:44;;;;;;;5.40;4.90;;;;;;;;;;5012350;28;20190;-73
2022/08/16 04:37:10;;;;;;;6.17;5.43;;;;;;;;;;5030861;28;20316;-73
2022/08/16 04:39:41;;;;;;;7.27;5.63;;;;;;;;;;5011263;28;20637;-73
2022/08/16 04:42:07;;;;;;;5.27;4.77;;;;;;;;;;5013904;28;20202;-73
2022/08/16 04:44:34;;;;;;;5.80;4.90;;;;;;;;;;5013745;28;20189;-73
2022/08/16 04:47:01;;;;;;;5.40;4.90;;;;;;;;;;5015241;28;20620;-74
2022/08/16 04:49:28;;;;;;;5.37;4.87;;;;;;;;;;5014293;28;20682;-73
2022/08/16 04:51:56;;;;;;;5.93;5.20;;;;;;;;;;5029292;28;20312;-73
2022/08/16 04:54:22;;;;;;;6.90;5.20;;;;;;;;;;4997385;28;20285;-73
2022/08/16 04:56:48;;;;;;;6.87;5.40;;;;;;;;;;5014512;28;20185;-73
2022/08/16 04:59:14;;;;;;;5.83;5.33;;;;;;;;;;5013980;28;20174;-73
2022/08/16 05:01:41;;;;;;;5.90;5.33;;;;;;;;;;5011973;28;20577;-73
2022/08/16 05:04:07;;;;;;;5.90;5.30;;;;;;;;;;5011497;28;20198;-73
2022/08/16 05:06:39;;;;;;;5.60;5.07;;;;;;;;;;5014125;28;20738;-73
2022/08/16 05:09:05;;;;;;;6.13;5.57;;;;;;;;;;5011956;28;20179;-73
2022/08/16 05:11:32;;;;;;;6.50;5.67;;;;;;;;;;5012551;28;20205;-73
2022/08/16 05:14:00;;;;;;;6.43;5.33;;;;;;;;;;5015918;28;20247;-73
2022/08/16 05:16:27;;;;;;;8.10;5.50;;;;;;;;;;5015418;28;20619;-73
2022/08/16 05:19:01;;;;;;;5.80;5.30;;;;;;;;;;5001679;28;20296;-73
2022/08/16 05:21:34;;;;;;;6.00;5.40;;;;;;;;;;4997728;28;20214;-73
2022/08/16 05:24:00;;;;;;;8.27;5.67;;;;;;;;;;5018465;28;20187;-73
2022/08/16 05:26:29;;;;;;;5.53;5.03;;;;;;;;;;4997919;28;20206;-73
2022/08/16 05:28:56;;;;;;;5.80;5.20;;;;;;;;;;5031214;28;20261;-73
2022/08/16 05:31:24;;;;;;;6.27;5.67;;;;;;;;;;5011292;28;20741;-73
2022/08/16 05:33:50;;;;;;;8.93;5.87;;;;;;;;;;5011513;28;20163;-73
2022/08/16 05:36:17;;;;;;;6.97;5.97;;;;;;;;;;4990930;28;20190;-74
2022/08/16 05:38:47;;;;;;;6.30;5.70;;;;;;;;;;5013394;28;20190;-74
2022/08/16 05:41:14;;;;;;;7.87;5.37;;;;;;;;;;4992244;28;20214;-74
2022/08/16 05:43:43;;;;;;;7.17;6.10;;;;;;;;;;4995589;28;20190;-74
2022/08/16 05:46:10;;;;;;;7.03;6.23;;;;;;;;;;5014691;28;20202;-76
2022/08/16 05:48:37;;;;;;;6.70;6.00;;;;;;;;;;5009347;28;20260;-78
2022/08/16 05:51:07;;;;;;;8.27;6.70;;;;;;;;;;5015376;28;20218;-77
2022/08/16 05:53:34;;;;;;;7.70;6.30;;;;;;;;;;5016166;28;20179;-75
2022/08/16 05:56:09;;;;;;;6.27;5.77;;;;;;;;;;5014701;28;20651;-75
2022/08/16 05:58:39;;;;;;;7.00;6.17;;;;;;;;;;4983394;28;20191;-75
2022/08/16 06:01:06;;;;;;;8.10;6.50;;;;;;;;;;5014219;28;20285;-75
2022/08/16 06:03:36;;;;;;;8.27;7.20;;;;;;;;;;5005511;28;20198;-75
2022/08/16 06:06:08;;;;;;;6.93;6.27;;;;;;;;;;4995173;28;20676;-73
2022/08/16 06:08:36;;;;;;;7.93;6.63;;;;;;;;;;5000549;28;20222;-73
2022/08/16 06:11:03;;;;;;;7.30;6.60;;;;;;;;;;5021176;28;20207;-73
2022/08/16 06:13:29;;;;;;;7.57;6.97;;;;;;;;;;5007394;28;20184;-74
2022/08/16 06:15:55;;;;;;;6.70;6.10;;;;;;;;;;5011561;28;20179;-73
2022/08/16 06:18:22;;;;;;;7.00;6.20;;;;;;;;;;4994180;28;20195;-73
2022/08/16 06:20:49;;;;;;;6.10;5.60;;;;;;;;;;5025105;28;20194;-74
2022/08/16 06:23:19;;;;;;;7.53;5.90;;;;;;;;;;5010639;28;20193;-74
2022/08/16 06:25:55;;;;;;;6.87;6.13;;;;;;;;;;5014749;28;20205;-74
2022/08/16 06:28:24;;;;;;;6.73;6.13;;;;;;;;;;5015929;28;20266;-73
2022/08/16 06:30:50;;;;;;;6.87;6.00;;;;;;;;;;4994628;28;20198;-74
2022/08/16 06:33:18;;;;;;;6.70;5.87;;;;;;;;;;5011237;28;20205;-73
2022/08/16 06:35:46;;;;;;;6.03;5.43;;;;;;;;;;5027836;28;20197;-73
2022/08/16 06:38:15;;;;;;;6.87;6.13;;;;;;;;;;5027927;28;20193;-73
2022/08/16 06:40:41;;;;;;;7.60;5.80;;;;;;;;;;5016801;28;20595;-74
2022/08/16 06:43:07;;;;;;;8.97;6.67;;;;;;;;;;5009780;28;20674;-74
2022/08/16 06:45:42;;;;;;;7.30;6.30;;;;;;;;;;5003446;28;20683;-74
2022/08/16 06:48:14;;;;;;;8.33;6.60;;;;;;;;;;5004908;28;20189;-74
2022/08/16 06:50:41;;;;;;;8.50;5.97;;;;;;;;;;5016743;28;20277;-74
2022/08/16 06:53:08;;;;;;;6.97;5.80;;;;;;;;;;5023820;28;20194;-74
2022/08/16 06:55:36;;;;;;;7.43;5.83;;;;;;;;;;5008658;28;20226;-74
2022/08/16 06:58:07;;;;;;;9.53;6.23;;;;;;;;;;5011102;28;20211;-74
2022/08/16 07:00:34;;;;;;;7.03;5.57;;;;;;;;;;5029425;28;20175;-74
2022/08/16 07:03:05;;;;;;;8.30;6.40;;;;;;;;;;5019042;28;20213;-74
2022/08/16 07:05:32;;;;;;;8.03;6.37;;;;;;;;;;5027914;28;20214;-74
2022/08/16 07:08:09;;;;;;;7.43;6.13;;;;;;;;;;5010719;28;20266;-74
2022/08/16 07:10:35;;;;;;;6.77;5.43;;;;;;;;;;5018842;28;20183;-73
2022/08/16 07:13:01;;;;;;;9.10;6.03;;;;;;;;;;5003245;28;20301;-73
2022/08/16 07:15:28;;;;;;;6.83;5.70;;;;;;;;;;5018182;28;20174;-73
2022/08/16 07:17:54;;;;;;;8.67;5.97;;;;;;;;;;5028367;28;20174;-72
2022/08/16 07:20:21;;;;;;;9.63;6.43;;;;;;;;;;5010171;28;20559;-72
2022/08/16 07:22:54;;;;;;;7.97;6.00;;;;;;;;;;5031596;28;20679;-72
2022/08/16 07:25:24;;;;;;;7.37;6.40;;;;;;;;;;5003782;28;20202;-72
2022/08/16 07:27:51;;;;;;;8.13;6.43;;;;;;;;;;5012234;28;20182;-72
2022/08/16 07:30:21;;;;;;;6.20;5.60;;;;;;;;;;4992805;28;20178;-73
2022/08/16 07:32:49;;;;;;;6.60;5.57;;;;;;;;;;5007823;28;20890;-73
2022/08/16 07:35:16;;;;;;;7.40;5.90;;;;;;;;;;5015502;28;20194;-73
2022/08/16 07:37:43;;;;;;;9.47;5.90;;;;;;;;;;5006371;28;20191;-73
2022/08/16 07:40:15;;;;;;;7.10;5.37;;;;;;;;;;5010135;28;20881;-73
2022/08/16 07:42:43;;;;;;;6.27;5.63;;;;;;;;;;5017082;28;20264;-73
2022/08/16 07:45:10;;;;;;;7.30;5.80;;;;;;;;;;5010748;28;20675;-74
2022/08/16 07:47:38;;;;;;;9.80;5.93;;;;;;;;;;5015047;28;20264;-72
2022/08/16 07:50:04;;;;;;;6.57;5.83;;;;;;;;;;5028594;28;20245;-75
2022/08/16 07:52:31;;;;;;;6.00;5.43;;;;;;;;;;5021387;28;20210;-76
2022/08/16 07:54:57;;;;;;;7.03;5.47;;;;;;;;;;5013826;28;20217;-73
2022/08/16 07:57:24;;;;;;;5.90;5.33;;;;;;;;;;5020608;28;20236;-73
2022/08/16 07:59:52;;;;;;;7.50;5.40;;;;;;;;;;5013832;28;20183;-73
2022/08/16 08:02:19;;;;;;;6.60;5.60;;;;;;;;;;5018125;28;20296;-73
2022/08/16 08:04:45;;;;;;;6.73;5.90;;;;;;;;;;5012273;28;20727;-73
2022/08/16 08:07:11;;;;;;;9.33;5.20;;;;;;;;;;5036874;28;20175;-73
2022/08/16 08:09:38;;;;;;;6.20;5.60;;;;;;;;;;5022679;28;20232;-73
2022/08/16 08:12:05;;;;;;;6.67;6.07;;;;;;;;;;5021327;28;20263;-73
2022/08/16 08:14:37;;;;;;;6.30;5.67;;;;;;;;;;5028670;28;20868;-73
2022/08/16 08:17:06;;;;;;;8.23;6.00;;;;;;;;;;5037881;28;20230;-73
2022/08/16 08:19:33;;;;;;;7.23;6.20;;;;;;;;;;5014628;28;20699;-73
2022/08/16 08:22:00;;;;;;;7.23;6.50;;;;;;;;;;5019466;28;20202;-73
2022/08/16 08:24:37;;;;;;;7.10;6.10;;;;;;;;;;5012574;28;20199;-73
2022/08/16 08:27:04;;;;;;;7.00;6.37;;;;;;;;;;5029304;28;20188;-73
2022/08/16 08:29:33;;;;;;;8.10;6.67;;;;;;;;;;5030710;28;20214;-73
2022/08/16 08:32:00;;;;;;;7.37;6.37;;;;;;;;;;5020833;28;20268;-74
2022/08/16 08:34:26;;;;;;;10.43;6.30;;;;;;;;;;5014962;28;20550;-74
2022/08/16 08:36:53;;;;;;;7.63;6.60;;;;;;;;;;5014506;28;20692;-73
2022/08/16 08:39:29;;;;;;;8.30;6.77;;;;;;;;;;5014119;28;20561;-73
2022/08/16 08:41:55;;;;;;;8.20;5.90;;;;;;;;;;5020040;28;20207;-73
2022/08/16 08:44:22;;;;;;;6.53;5.93;;;;;;;;;;5010257;28;20178;-74
2022/08/16 08:46:49;;;;;;;7.70;6.00;;;;;;;;;;5011683;28;20218;-73
2022/08/16 08:49:15;;;;;;;7.37;6.20;;;;;;;;;;5014854;28;20198;-73
2022/08/16 08:51:43;;;;;;;7.07;6.13;;;;;;;;;;5015158;28;20225;-73
2022/08/16 08:54:13;;;;;;;6.50;5.90;;;;;;;;;;5008807;28;20262;-73
2022/08/16 08:56:42;;;;;;;6.30;5.63;;;;;;;;;;5033920;28;20248;-73
2022/08/16 08:59:29;;;;;;;7.33;5.80;;;;;;;;;;5016195;28;20178;-73
2022/08/16 09:01:56;;;;;;;7.07;5.87;;;;;;;;;;5034554;28;20237;-73
2022/08/16 09:04:23;;;;;;;7.70;5.80;;;;;;;;;;5015819;28;20187;-73
2022/08/16 09:06:51;;;;;;;6.77;5.93;;;;;;;;;;5015555;28;20744;-73
2022/08/16 09:09:18;;;;;;;6.73;5.93;;;;;;;;;;5032032;28;20186;-73
2022/08/16 09:11:51;;;;;;;9.23;6.77;;;;;;;;;;5015000;28;20198;-73
2022/08/16 09:14:17;;;;;;;9.07;6.50;;;;;;;;;;5014566;28;20182;-73
2022/08/16 09:16:44;;;;;;;7.30;6.60;;;;;;;;;;5011539;28;20247;-73
2022/08/16 09:19:10;;;;;;;6.47;5.87;;;;;;;;;;5015369;28;20240;-73
2022/08/16 09:21:36;;;;;;;6.90;6.30;;;;;;;;;;5015417;28;20213;-73
2022/08/16 09:24:03;;;;;;;6.80;6.10;;;;;;;;;;5011234;28;20241;-73
2022/08/16 09:26:29;;;;;;;6.57;5.97;;;;;;;;;;5026216;28;20262;-73
2022/08/16 09:28:56;;;;;;;8.60;6.63;;;;;;;;;;5030062;28;20644;-73
2022/08/16 09:31:23;;;;;;;7.03;6.37;;;;;;;;;;5006997;28;20321;-74
2022/08/16 09:33:51;;;;;;;9.20;6.70;;;;;;;;;;5028763;28;20178;-75
2022/08/16 09:36:18;;;;;;;8.57;6.67;;;;;;;;;;5033917;28;20186;-75
2022/08/16 09:38:45;;;;;;;6.70;6.10;;;;;;;;;;5030655;28;20179;-75
2022/08/16 09:41:11;;;;;;;7.80;7.00;;;;;;;;;;5030207;28;20285;-75
2022/08/16 09:43:38;;;;;;;10.20;6.60;;;;;;;;;;5030543;28;20200;-75
2022/08/16 09:46:06;;;;;;;7.40;6.70;;;;;;;;;;5029473;28;20216;-74
2022/08/16 09:48:32;;;;;;;6.70;5.63;;;;;;;;;;5022250;28;20726;-74
2022/08/16 09:50:58;;;;;;;6.63;5.57;;;;;;;;;;5029230;28;20194;-74
2022/08/16 09:53:25;;;;;;;6.53;5.50;;;;;;;;;;5031299;28;20232;-74
2022/08/16 09:55:53;;;;;;;8.73;5.90;;;;;;;;;;5014257;28;20170;-75
2022/08/16 09:58:22;;;;;;;7.43;6.30;;;;;;;;;;5022306;28;20559;-75
2022/08/16 10:00:49;;;;;;;6.67;5.93;;;;;;;;;;5031179;28;20192;-74
2022/08/16 10:03:15;;;;;;;8.27;6.30;;;;;;;;;;5013607;28;20187;-75
2022/08/16 10:05:42;;;;;;;6.73;5.67;;;;;;;;;;5029851;28;20220;-75
2022/08/16 10:08:08;;;;;;;7.47;5.77;;;;;;;;;;5013362;28;20183;-75
2022/08/16 10:10:35;;;;;;;6.90;6.20;;;;;;;;;;5014366;28;20540;-75
2022/08/16 10:13:13;;;;;;;6.90;5.53;;;;;;;;;;5031314;28;20280;-75
2022/08/16 10:15:41;;;;;;;5.20;4.70;;;;;;;;;;5015303;28;20191;-75
2022/08/16 10:18:08;;;;;;;5.83;4.87;;;;;;;;;;5026249;28;20266;-74
2022/08/16 10:20:36;;;;;;;5.47;4.97;;;;;;;;;;5018527;28;20198;-75
2022/08/16 10:23:04;;;;;;;5.73;5.20;;;;;;;;;;5030923;28;20211;-75
2022/08/16 10:25:30;;;;;;;6.10;5.43;;;;;;;;;;4991968;28;20215;-75
2022/08/16 10:27:56;;;;;;;6.23;4.73;;;;;;;;;;5029398;28;20256;-75
2022/08/16 10:30:22;;;;;;;5.90;5.30;;;;;;;;;;5029692;28;20200;-75
2022/08/16 10:32:49;;;;;;;6.73;5.30;;;;;;;;;;5029642;28;20206;-75
2022/08/16 10:35:15;;;;;;;6.20;5.60;;;;;;;;;;5028893;28;20259;-75
2022/08/16 10:37:41;;;;;;;6.10;5.50;;;;;;;;;;5021769;28;20190;-75
2022/08/16 10:40:08;;;;;;;6.33;5.10;;;;;;;;;;5024475;28;20197;-75
2022/08/16 10:42:34;;;;;;;6.77;5.30;;;;;;;;;;5023291;28;20218;-75
2022/08/16 10:45:01;;;;;;;5.83;4.90;;;;;;;;;;5031635;28;20675;-75
2022/08/16 10:47:28;;;;;;;8.43;5.00;;;;;;;;;;5031810;28;20182;-75
2022/08/16 10:49:54;;;;;;;5.37;4.80;;;;;;;;;;5027051;28;20841;-75
2022/08/16 10:52:21;;;;;;;5.00;4.60;;;;;;;;;;5030431;28;20217;-75
2022/08/16 10:54:48;;;;;;;6.70;4.50;;;;;;;;;;5031882;28;20313;-75
2022/08/16 10:57:14;;;;;;;4.53;4.20;;;;;;;;;;5037814;28;20189;-76
2022/08/16 10:59:41;;;;;;;4.40;4.00;;;;;;;;;;5024934;28;20179;-75
2022/08/16 11:02:09;;;;;;;4.57;4.17;;;;;;;;;;5030790;28;20227;-74
2022/08/16 11:04:35;;;;;;;4.77;4.20;;;;;;;;;;5028675;28;20190;-74
2022/08/16 11:07:01;;;;;;;5.17;4.30;;;;;;;;;;5029019;28;20602;-74
2022/08/16 11:09:28;;;;;;;4.80;4.30;;;;;;;;;;5030628;28;20186;-73
2022/08/16 11:11:54;;;;;;;5.90;4.77;;;;;;;;;;5030102;28;20296;-75
2022/08/16 11:14:20;;;;;;;4.93;4.50;;;;;;;;;;5030397;28;20620;-75
2022/08/16 11:16:47;;;;;;;5.13;4.70;;;;;;;;;;5031196;28;20241;-75
2022/08/16 11:19:13;;;;;;;4.73;4.30;;;;;;;;;;5027442;28;20181;-74
2022/08/16 11:21:43;;;;;;;5.33;4.53;;;;;;;;;;5027684;28;20683;-74
2022/08/16 11:24:10;;;;;;;4.77;4.17;;;;;;;;;;5028440;28;20197;-74
2022/08/16 11:26:36;;;;;;;5.73;4.70;;;;;;;;;;5022835;28;20268;-74
2022/08/16 11:29:02;;;;;;;5.27;4.60;;;;;;;;;;5031188;28;20519;-75
2022/08/16 11:31:28;;;;;;;7.50;4.87;;;;;;;;;;5026989;28;20626;-73
2022/08/16 11:33:55;;;;;;;6.00;4.50;;;;;;;;;;5032823;28;20175;-73
2022/08/16 11:36:21;;;;;;;4.70;4.30;;;;;;;;;;5030904;28;20192;-74
2022/08/16 11:38:47;;;;;;;4.93;4.40;;;;;;;;;;5030474;28;20726;-73
2022/08/16 11:41:13;;;;;;;5.70;4.57;;;;;;;;;;5030414;28;20255;-74
2022/08/16 11:43:43;;;;;;;5.33;4.77;;;;;;;;;;5029554;28;20269;-74
2022/08/16 11:46:14;;;;;;;4.90;4.40;;;;;;;;;;5027416;28;20202;-74
2022/08/16 11:48:40;;;;;;;5.17;4.33;;;;;;;;;;5030603;28;20947;-74
2022/08/16 11:51:06;;;;;;;4.33;3.93;;;;;;;;;;5029953;28;20300;-74
2022/08/16 11:53:33;;;;;;;5.10;4.60;;;;;;;;;;5025645;28;20213;-73
2022/08/16 11:56:00;;;;;;;5.33;4.83;;;;;;;;;;5029235;28;20198;-74
2022/08/16 11:58:26;;;;;;;5.23;4.43;;;;;;;;;;5027129;28;20183;-73
2022/08/16 12:00:54;;;;;;;4.70;4.30;;;;;;;;;;5021799;28;20714;-74
2022/08/16 12:03:22;;;;;;;5.63;4.47;;;;;;;;;;5010618;28;20836;-73
2022/08/16 12:05:48;;;;;;;4.43;4.13;;;;;;;;;;5029938;28;20212;-73
2022/08/16 12:08:14;;;;;;;4.40;4.00;;;;;;;;;;5028188;28;20209;-74
2022/08/16 12:10:43;;;;;;;4.30;4.00;;;;;;;;;;5027000;28;20182;-75
2022/08/16 12:13:10;;;;;;;5.37;3.60;;;;;;;;;;5010526;28;20557;-76
2022/08/16 12:15:37;;;;;;;3.80;3.50;;;;;;;;;;5026020;28;20193;-76
2022/08/16 12:18:04;;;;;;;3.70;3.40;;;;;;;;;;5027987;28;20221;-79
2022/08/16 12:20:32;;;;;;;3.77;3.47;;;;;;;;;;5031371;28;20183;-75
2022/08/16 12:22:58;;;;;;;4.87;3.97;;;;;;;;;;5027084;28;20570;-79
2022/08/16 12:25:26;;;;;;;3.70;3.40;;;;;;;;;;5030044;28;20216;-78
2022/08/16 12:27:53;;;;;;;6.73;3.93;;;;;;;;;;5024392;28;20243;-76
2022/08/16 12:30:21;;;;;;;3.30;3.00;;;;;;;;;;5023347;28;20188;-82
2022/08/16 12:32:47;;;;;;;4.40;3.97;;;;;;;;;;5025857;28;20271;-80
2022/08/16 12:35:15;;;;;;;4.10;3.57;;;;;;;;;;5032249;28;20706;-80
2022/08/16 12:37:42;;;;;;;4.83;3.93;;;;;;;;;;5030554;28;20193;-79
2022/08/16 12:40:09;;;;;;;3.53;3.23;;;;;;;;;;5032397;28;20182;-80
2022/08/16 12:42:36;;;;;;;3.90;3.60;;;;;;;;;;5032109;28;20257;-80
2022/08/16 12:45:08;;;;;;;4.03;3.37;;;;;;;;;;5015961;28;20219;-80
2022/08/16 12:50:19;;;;;;;3.43;3.20;;;;;;;;;;5017020;28;20667;-79
2022/08/16 12:52:45;;;;;;;3.53;3.00;;;;;;;;;;5031820;28;21203;-79
2022/08/16 12:55:11;;;;;;;3.30;3.10;;;;;;;;;;5016706;28;20729;-78
2022/08/16 12:57:38;;;;;;;21.73;19.60;;;;;;;;;;5009288;28;20278;-79
2022/08/16 13:00:09;;;;;;;6.43;5.83;;;;;;;;;;5016835;28;20272;-80
2022/08/16 13:02:40;;;;;;;6.13;4.60;;;;;;;;;;5010754;28;20215;-81
2022/08/16 13:05:06;;;;;;;5.03;4.53;;;;;;;;;;5029914;28;20210;-78
2022/08/16 13:07:32;;;;;;;6.00;3.90;;;;;;;;;;5006062;28;20233;-82
2022/08/16 13:10:07;;;;;;;3.83;3.40;;;;;;;;;;5015165;28;20185;-83
2022/08/16 13:12:37;;;;;;;3.63;3.33;;;;;;;;;;5029653;28;20205;-82
2022/08/16 13:15:04;;;;;;;5.37;3.60;;;;;;;;;;5013090;28;20189;-82
2022/08/16 13:17:31;;;;;;;3.97;3.60;;;;;;;;;;5029993;28;20174;-82
2022/08/16 13:19:59;;;;;;;4.53;3.40;;;;;;;;;;5034103;28;20187;-82
2022/08/16 13:22:26;;;;;;;5.63;3.60;;;;;;;;;;5016818;28;20204;-82
2022/08/16 13:24:53;;;;;;;3.70;3.40;;;;;;;;;;4998168;28;20183;-82
2022/08/16 13:27:20;;;;;;;4.90;3.63;;;;;;;;;;5036037;28;20560;-82
2022/08/16 13:29:46;;;;;;;3.60;3.30;;;;;;;;;;5017024;28;20185;-82
2022/08/16 13:32:12;;;;;;;3.90;3.60;;;;;;;;;;5033337;28;20577;-82
2022/08/16 13:34:38;;;;;;;4.00;3.60;;;;;;;;;;5021202;28;20210;-82
2022/08/16 13:37:04;;;;;;;4.13;3.30;;;;;;;;;;5006926;28;20200;-82
2022/08/16 13:39:31;;;;;;;3.93;3.20;;;;;;;;;;5034200;28;20187;-81
2022/08/16 13:42:01;;;;;;;5.37;3.20;;;;;;;;;;5035248;28;20207;-81
2022/08/16 13:44:27;;;;;;;4.10;2.80;;;;;;;;;;5028957;28;20189;-82
2022/08/16 13:46:55;;;;;;;3.70;2.60;;;;;;;;;;5028010;28;20591;-82
2022/08/16 13:49:22;;;;;;;3.95;2.75;;;;;;;;;;5027259;28;20524;-79
2022/08/16 13:51:48;;;;;;;3.27;2.80;;;;;;;;;;5029575;28;20229;-79
2022/08/16 13:54:14;;;;;;;5.53;3.20;;;;;;;;;;5029389;28;20269;-77
2022/08/16 13:56:40;;;;;;;3.00;2.80;;;;;;;;;;5028948;28;20182;-74
2022/08/16 13:59:08;;;;;;;3.73;2.80;;;;;;;;;;5022671;28;20402;-74
2022/08/16 14:01:34;;;;;;;5.13;3.13;;;;;;;;;;5012083;28;20215;-74
2022/08/16 14:04:00;;;;;;;3.27;3.00;;;;;;;;;;5029573;28;20207;-74
2022/08/16 14:06:27;;;;;;;3.30;2.87;;;;;;;;;;5027856;28;20214;-74
2022/08/16 14:08:53;;;;;;;3.40;3.00;;;;;;;;;;5026824;28;20191;-75
2022/08/16 14:11:19;;;;;;;3.37;3.07;;;;;;;;;;5029475;28;20203;-74
2022/08/16 14:13:46;;;;;;;4.27;3.27;;;;;;;;;;5012211;28;20676;-74
2022/08/16 14:16:12;;;;;;;3.27;2.93;;;;;;;;;;5029518;28;20202;-75
2022/08/16 14:18:38;;;;;;;3.37;2.87;;;;;;;;;;4993994;28;20198;-75
2022/08/16 14:21:05;;;;;;;4.93;3.23;;;;;;;;;;5029803;28;20220;-75
2022/08/16 14:23:31;;;;;;;3.63;3.22;;;;;;;;;;5026714;28;20273;-76
2022/08/16 14:25:58;;;;;;;3.20;2.90;;;;;;;;;;5029686;28;20966;-79
2022/08/16 14:28:25;;;;;;;2.85;2.58;;;;;;;;;;5030635;28;20172;-83
2022/08/16 14:30:52;;;;;;;4.07;2.60;;;;;;;;;;5028366;28;20193;-77
2022/08/16 14:33:18;;;;;;;5.25;2.78;;;;;;;;;;5030183;28;20224;-75
2022/08/16 14:35:45;;;;;;;3.05;2.75;;;;;;;;;;5028052;28;20308;-75
2022/08/16 14:38:11;;;;;;;3.13;2.33;;;;;;;;;;5009056;28;20201;-75
2022/08/16 14:40:38;;;;;;;4.90;2.97;;;;;;;;;;5029160;28;20288;-75
2022/08/16 14:43:04;;;;;;;2.75;2.50;;;;;;;;;;5017940;28;20575;-75
2022/08/16 14:45:30;;;;;;;2.47;2.28;;;;;;;;;;5029683;28;20629;-75
2022/08/16 14:47:56;;;;;;;4.97;2.80;;;;;;;;;;5029120;28;20189;-75